sensor_id;sensor_type;location;lat;lon;timestamp;P1;durP1;ratioP1;P2;durP2;ratioP2
65315;SDS011;51920;53.952;10.292;2023-02-23T00:01:39;22.35;;;9.15;;
65315;SDS011;51920;53.952;10.292;2023-02-23T00:04:06;19.70;;;9.18;;
65315;SDS011;51920;53.952;10.292;2023-02-23T00:06:33;19.27;;;8.65;;
65315;SDS011;51920;53.952;10.292;2023-02-23T00:09:00;21.33;;;9.35;;
65315;SDS011;51920;53.952;10.292;2023-02-23T00:11:27;19.47;;;8.77;;
65315;SDS011;51920;53.952;10.292;2023-02-23T00:13:53;22.95;;;9.40;;
65315;SDS011;51920;53.952;10.292;2023-02-23T00:16:24;23.40;;;9.50;;
65315;SDS011;51920;53.952;10.292;2023-02-23T00:18:51;20.45;;;9.15;;
65315;SDS011;51920;53.952;10.292;2023-02-23T00:23:50;23.27;;;9.03;;
65315;SDS011;51920;53.952;10.292;2023-02-23T00:26:17;24.05;;;9.43;;
65315;SDS011;51920;53.952;10.292;2023-02-23T00:28:45;24.05;;;9.70;;
65315;SDS011;51920;53.952;10.292;2023-02-23T00:31:13;29.65;;;10.30;;
65315;SDS011;51920;53.952;10.292;2023-02-23T00:33:39;21.90;;;8.98;;
65315;SDS011;51920;53.952;10.292;2023-02-23T00:36:08;21.57;;;9.23;;
65315;SDS011;51920;53.952;10.292;2023-02-23T00:38:35;26.17;;;9.57;;
65315;SDS011;51920;53.952;10.292;2023-02-23T00:41:08;24.25;;;9.85;;
65315;SDS011;51920;53.952;10.292;2023-02-23T00:43:36;23.17;;;10.10;;
65315;SDS011;51920;53.952;10.292;2023-02-23T00:46:03;26.20;;;9.77;;
65315;SDS011;51920;53.952;10.292;2023-02-23T00:48:30;24.60;;;10.57;;
65315;SDS011;51920;53.952;10.292;2023-02-23T00:51:00;24.08;;;9.50;;
65315;SDS011;51920;53.952;10.292;2023-02-23T00:53:27;22.55;;;9.57;;
65315;SDS011;51920;53.952;10.292;2023-02-23T00:55:53;27.65;;;9.57;;
65315;SDS011;51920;53.952;10.292;2023-02-23T00:58:21;23.37;;;9.53;;
65315;SDS011;51920;53.952;10.292;2023-02-23T01:00:47;25.30;;;9.93;;
65315;SDS011;51920;53.952;10.292;2023-02-23T01:03:12;24.53;;;10.00;;
65315;SDS011;51920;53.952;10.292;2023-02-23T01:05:38;24.80;;;10.10;;
65315;SDS011;51920;53.952;10.292;2023-02-23T01:08:03;25.50;;;9.90;;
65315;SDS011;51920;53.952;10.292;2023-02-23T01:10:33;30.13;;;10.23;;
65315;SDS011;51920;53.952;10.292;2023-02-23T01:13:03;30.17;;;10.35;;
65315;SDS011;51920;53.952;10.292;2023-02-23T01:15:30;25.57;;;10.27;;
65315;SDS011;51920;53.952;10.292;2023-02-23T01:17:58;25.67;;;10.48;;
65315;SDS011;51920;53.952;10.292;2023-02-23T01:20:24;24.47;;;10.53;;
65315;SDS011;51920;53.952;10.292;2023-02-23T01:22:50;24.35;;;10.07;;
65315;SDS011;51920;53.952;10.292;2023-02-23T01:25:16;25.13;;;9.80;;
65315;SDS011;51920;53.952;10.292;2023-02-23T01:27:43;25.33;;;10.07;;
65315;SDS011;51920;53.952;10.292;2023-02-23T01:30:10;24.60;;;10.43;;
65315;SDS011;51920;53.952;10.292;2023-02-23T01:32:39;23.65;;;9.93;;
65315;SDS011;51920;53.952;10.292;2023-02-23T01:35:06;29.80;;;10.60;;
65315;SDS011;51920;53.952;10.292;2023-02-23T01:37:37;26.47;;;10.90;;
65315;SDS011;51920;53.952;10.292;2023-02-23T01:40:14;27.33;;;10.20;;
65315;SDS011;51920;53.952;10.292;2023-02-23T01:42:51;30.38;;;11.48;;
65315;SDS011;51920;53.952;10.292;2023-02-23T01:45:21;27.37;;;10.63;;
65315;SDS011;51920;53.952;10.292;2023-02-23T01:48:07;30.92;;;11.50;;
65315;SDS011;51920;53.952;10.292;2023-02-23T01:50:59;28.73;;;10.27;;
65315;SDS011;51920;53.952;10.292;2023-02-23T01:53:29;30.23;;;10.82;;
65315;SDS011;51920;53.952;10.292;2023-02-23T01:56:00;28.80;;;11.13;;
65315;SDS011;51920;53.952;10.292;2023-02-23T01:58:29;31.55;;;12.00;;
65315;SDS011;51920;53.952;10.292;2023-02-23T02:00:58;32.55;;;12.18;;
65315;SDS011;51920;53.952;10.292;2023-02-23T02:06:14;37.00;;;13.75;;
65315;SDS011;51920;53.952;10.292;2023-02-23T02:08:45;30.90;;;11.27;;
65315;SDS011;51920;53.952;10.292;2023-02-23T02:11:19;32.47;;;11.73;;
65315;SDS011;51920;53.952;10.292;2023-02-23T02:19:31;32.58;;;11.52;;
65315;SDS011;51920;53.952;10.292;2023-02-23T02:28:04;28.08;;;10.40;;
65315;SDS011;51920;53.952;10.292;2023-02-23T02:30:54;30.10;;;10.88;;
65315;SDS011;51920;53.952;10.292;2023-02-23T02:36:45;29.67;;;10.57;;
65315;SDS011;51920;53.952;10.292;2023-02-23T02:47:26;37.08;;;11.35;;
65315;SDS011;51920;53.952;10.292;2023-02-23T02:50:04;29.97;;;10.23;;
65315;SDS011;51920;53.952;10.292;2023-02-23T02:52:38;31.58;;;11.45;;
65315;SDS011;51920;53.952;10.292;2023-02-23T02:55:11;28.17;;;10.98;;
65315;SDS011;51920;53.952;10.292;2023-02-23T02:57:42;31.50;;;11.20;;
65315;SDS011;51920;53.952;10.292;2023-02-23T03:00:14;35.17;;;11.15;;
65315;SDS011;51920;53.952;10.292;2023-02-23T03:03:01;32.67;;;11.70;;
65315;SDS011;51920;53.952;10.292;2023-02-23T03:05:47;32.65;;;11.52;;
65315;SDS011;51920;53.952;10.292;2023-02-23T03:11:37;28.63;;;10.88;;
65315;SDS011;51920;53.952;10.292;2023-02-23T03:14:42;34.33;;;11.77;;
65315;SDS011;51920;53.952;10.292;2023-02-23T03:17:48;31.13;;;11.10;;
65315;SDS011;51920;53.952;10.292;2023-02-23T03:20:44;32.33;;;11.27;;
65315;SDS011;51920;53.952;10.292;2023-02-23T03:23:39;31.75;;;11.43;;
65315;SDS011;51920;53.952;10.292;2023-02-23T03:26:36;32.28;;;11.40;;
65315;SDS011;51920;53.952;10.292;2023-02-23T03:29:32;32.28;;;11.27;;
65315;SDS011;51920;53.952;10.292;2023-02-23T03:35:21;34.40;;;11.48;;
65315;SDS011;51920;53.952;10.292;2023-02-23T03:38:11;35.25;;;12.25;;
65315;SDS011;51920;53.952;10.292;2023-02-23T03:41:03;36.30;;;11.82;;
65315;SDS011;51920;53.952;10.292;2023-02-23T03:43:52;32.35;;;11.88;;
65315;SDS011;51920;53.952;10.292;2023-02-23T03:46:40;34.90;;;11.63;;
65315;SDS011;51920;53.952;10.292;2023-02-23T03:49:27;37.55;;;12.43;;
65315;SDS011;51920;53.952;10.292;2023-02-23T03:52:17;38.95;;;12.65;;
65315;SDS011;51920;53.952;10.292;2023-02-23T03:55:06;35.47;;;12.18;;
65315;SDS011;51920;53.952;10.292;2023-02-23T03:57:55;35.10;;;12.00;;
65315;SDS011;51920;53.952;10.292;2023-02-23T04:00:43;35.53;;;12.33;;
65315;SDS011;51920;53.952;10.292;2023-02-23T04:03:32;35.33;;;11.95;;
65315;SDS011;51920;53.952;10.292;2023-02-23T04:06:19;34.40;;;12.65;;
65315;SDS011;51920;53.952;10.292;2023-02-23T04:09:08;37.47;;;12.82;;
65315;SDS011;51920;53.952;10.292;2023-02-23T04:14:42;40.23;;;12.87;;
65315;SDS011;51920;53.952;10.292;2023-02-23T04:17:13;37.53;;;12.20;;
65315;SDS011;51920;53.952;10.292;2023-02-23T04:19:48;34.45;;;12.13;;
65315;SDS011;51920;53.952;10.292;2023-02-23T04:22:17;36.60;;;12.10;;
65315;SDS011;51920;53.952;10.292;2023-02-23T04:24:42;41.73;;;13.23;;
65315;SDS011;51920;53.952;10.292;2023-02-23T04:27:08;36.45;;;12.80;;
65315;SDS011;51920;53.952;10.292;2023-02-23T04:29:33;42.50;;;12.60;;
65315;SDS011;51920;53.952;10.292;2023-02-23T04:31:59;36.33;;;12.53;;
65315;SDS011;51920;53.952;10.292;2023-02-23T04:34:24;40.40;;;13.50;;
65315;SDS011;51920;53.952;10.292;2023-02-23T04:36:49;35.10;;;12.43;;
65315;SDS011;51920;53.952;10.292;2023-02-23T04:39:15;36.28;;;12.45;;
65315;SDS011;51920;53.952;10.292;2023-02-23T04:41:41;35.33;;;12.00;;
65315;SDS011;51920;53.952;10.292;2023-02-23T04:44:07;41.50;;;12.75;;
65315;SDS011;51920;53.952;10.292;2023-02-23T04:46:32;34.97;;;12.10;;
65315;SDS011;51920;53.952;10.292;2023-02-23T04:48:57;44.63;;;12.60;;
65315;SDS011;51920;53.952;10.292;2023-02-23T04:51:23;40.83;;;13.27;;
65315;SDS011;51920;53.952;10.292;2023-02-23T04:53:48;36.23;;;12.77;;
65315;SDS011;51920;53.952;10.292;2023-02-23T04:56:14;34.93;;;12.93;;
65315;SDS011;51920;53.952;10.292;2023-02-23T04:58:40;40.08;;;12.07;;
65315;SDS011;51920;53.952;10.292;2023-02-23T05:01:07;37.22;;;13.13;;
65315;SDS011;51920;53.952;10.292;2023-02-23T05:03:34;39.10;;;13.70;;
65315;SDS011;51920;53.952;10.292;2023-02-23T05:06:00;44.72;;;13.20;;
65315;SDS011;51920;53.952;10.292;2023-02-23T05:08:26;41.20;;;13.70;;
65315;SDS011;51920;53.952;10.292;2023-02-23T05:10:52;40.20;;;12.45;;
65315;SDS011;51920;53.952;10.292;2023-02-23T05:13:17;38.17;;;12.30;;
65315;SDS011;51920;53.952;10.292;2023-02-23T05:15:43;40.73;;;12.53;;
65315;SDS011;51920;53.952;10.292;2023-02-23T05:18:08;49.80;;;13.63;;
65315;SDS011;51920;53.952;10.292;2023-02-23T05:20:34;41.28;;;13.48;;
65315;SDS011;51920;53.952;10.292;2023-02-23T05:23:00;41.07;;;12.87;;
65315;SDS011;51920;53.952;10.292;2023-02-23T05:25:25;43.72;;;13.52;;
65315;SDS011;51920;53.952;10.292;2023-02-23T05:27:50;46.43;;;13.47;;
65315;SDS011;51920;53.952;10.292;2023-02-23T05:30:16;43.80;;;13.70;;
65315;SDS011;51920;53.952;10.292;2023-02-23T05:32:41;40.73;;;12.47;;
65315;SDS011;51920;53.952;10.292;2023-02-23T05:35:07;42.40;;;13.40;;
65315;SDS011;51920;53.952;10.292;2023-02-23T05:37:33;45.40;;;13.63;;
65315;SDS011;51920;53.952;10.292;2023-02-23T05:39:59;49.60;;;13.90;;
65315;SDS011;51920;53.952;10.292;2023-02-23T05:42:24;49.77;;;13.33;;
65315;SDS011;51920;53.952;10.292;2023-02-23T05:44:50;43.33;;;13.07;;
65315;SDS011;51920;53.952;10.292;2023-02-23T05:47:15;42.30;;;13.37;;
65315;SDS011;51920;53.952;10.292;2023-02-23T05:49:40;41.07;;;12.57;;
65315;SDS011;51920;53.952;10.292;2023-02-23T05:52:06;36.20;;;12.60;;
65315;SDS011;51920;53.952;10.292;2023-02-23T05:54:32;37.93;;;12.17;;
65315;SDS011;51920;53.952;10.292;2023-02-23T05:56:57;42.63;;;12.90;;
65315;SDS011;51920;53.952;10.292;2023-02-23T05:59:23;41.67;;;12.30;;
65315;SDS011;51920;53.952;10.292;2023-02-23T06:01:49;43.47;;;12.60;;
65315;SDS011;51920;53.952;10.292;2023-02-23T06:04:14;37.40;;;12.87;;
65315;SDS011;51920;53.952;10.292;2023-02-23T06:06:41;44.03;;;13.15;;
65315;SDS011;51920;53.952;10.292;2023-02-23T06:09:07;39.05;;;13.05;;
65315;SDS011;51920;53.952;10.292;2023-02-23T06:11:32;37.67;;;12.63;;
65315;SDS011;51920;53.952;10.292;2023-02-23T06:13:58;43.87;;;13.57;;
65315;SDS011;51920;53.952;10.292;2023-02-23T06:16:24;44.27;;;13.43;;
65315;SDS011;51920;53.952;10.292;2023-02-23T06:18:50;50.30;;;13.23;;
65315;SDS011;51920;53.952;10.292;2023-02-23T06:21:15;44.97;;;13.30;;
65315;SDS011;51920;53.952;10.292;2023-02-23T06:23:41;42.20;;;13.53;;
65315;SDS011;51920;53.952;10.292;2023-02-23T06:26:06;44.63;;;13.23;;
65315;SDS011;51920;53.952;10.292;2023-02-23T06:28:32;41.40;;;13.35;;
65315;SDS011;51920;53.952;10.292;2023-02-23T06:30:57;45.60;;;14.73;;
65315;SDS011;51920;53.952;10.292;2023-02-23T06:33:23;48.67;;;14.43;;
65315;SDS011;51920;53.952;10.292;2023-02-23T06:35:49;40.67;;;13.23;;
65315;SDS011;51920;53.952;10.292;2023-02-23T06:38:15;39.97;;;13.60;;
65315;SDS011;51920;53.952;10.292;2023-02-23T06:40:41;38.33;;;12.80;;
65315;SDS011;51920;53.952;10.292;2023-02-23T06:43:07;40.55;;;13.13;;
65315;SDS011;51920;53.952;10.292;2023-02-23T06:45:32;40.77;;;13.07;;
65315;SDS011;51920;53.952;10.292;2023-02-23T06:47:58;44.57;;;14.87;;
65315;SDS011;51920;53.952;10.292;2023-02-23T06:50:25;49.53;;;14.45;;
65315;SDS011;51920;53.952;10.292;2023-02-23T06:52:50;45.70;;;15.00;;
65315;SDS011;51920;53.952;10.292;2023-02-23T06:55:16;48.77;;;15.17;;
65315;SDS011;51920;53.952;10.292;2023-02-23T06:57:42;47.63;;;15.25;;
65315;SDS011;51920;53.952;10.292;2023-02-23T07:00:08;51.00;;;16.40;;
65315;SDS011;51920;53.952;10.292;2023-02-23T07:02:41;47.97;;;15.90;;
65315;SDS011;51920;53.952;10.292;2023-02-23T07:05:08;51.53;;;16.88;;
65315;SDS011;51920;53.952;10.292;2023-02-23T07:07:33;48.50;;;16.83;;
65315;SDS011;51920;53.952;10.292;2023-02-23T07:09:59;52.37;;;17.80;;
65315;SDS011;51920;53.952;10.292;2023-02-23T07:12:24;60.40;;;18.60;;
65315;SDS011;51920;53.952;10.292;2023-02-23T07:14:50;60.33;;;18.33;;
65315;SDS011;51920;53.952;10.292;2023-02-23T07:17:15;53.77;;;17.50;;
65315;SDS011;51920;53.952;10.292;2023-02-23T07:19:42;58.92;;;18.17;;
65315;SDS011;51920;53.952;10.292;2023-02-23T07:22:07;55.23;;;18.03;;
65315;SDS011;51920;53.952;10.292;2023-02-23T07:24:33;53.00;;;17.90;;
65315;SDS011;51920;53.952;10.292;2023-02-23T07:26:58;52.10;;;17.45;;
65315;SDS011;51920;53.952;10.292;2023-02-23T07:29:23;57.70;;;18.23;;
65315;SDS011;51920;53.952;10.292;2023-02-23T07:31:49;59.17;;;19.10;;
65315;SDS011;51920;53.952;10.292;2023-02-23T07:34:14;56.70;;;19.10;;
65315;SDS011;51920;53.952;10.292;2023-02-23T07:36:40;54.55;;;17.48;;
65315;SDS011;51920;53.952;10.292;2023-02-23T07:39:06;58.33;;;19.03;;
65315;SDS011;51920;53.952;10.292;2023-02-23T07:41:31;55.65;;;18.45;;
65315;SDS011;51920;53.952;10.292;2023-02-23T07:43:58;55.15;;;18.48;;
65315;SDS011;51920;53.952;10.292;2023-02-23T07:46:24;56.60;;;17.57;;
65315;SDS011;51920;53.952;10.292;2023-02-23T07:48:50;58.50;;;18.00;;
65315;SDS011;51920;53.952;10.292;2023-02-23T07:51:15;59.93;;;18.10;;
65315;SDS011;51920;53.952;10.292;2023-02-23T07:53:42;52.50;;;18.20;;
65315;SDS011;51920;53.952;10.292;2023-02-23T07:56:08;56.83;;;17.30;;
65315;SDS011;51920;53.952;10.292;2023-02-23T07:58:38;56.78;;;17.98;;
65315;SDS011;51920;53.952;10.292;2023-02-23T08:01:04;48.25;;;16.63;;
65315;SDS011;51920;53.952;10.292;2023-02-23T08:03:30;56.30;;;18.17;;
65315;SDS011;51920;53.952;10.292;2023-02-23T08:05:56;57.97;;;17.53;;
65315;SDS011;51920;53.952;10.292;2023-02-23T08:08:21;59.43;;;19.07;;
65315;SDS011;51920;53.952;10.292;2023-02-23T08:10:47;57.00;;;17.88;;
65315;SDS011;51920;53.952;10.292;2023-02-23T08:13:13;52.37;;;17.80;;
65315;SDS011;51920;53.952;10.292;2023-02-23T08:15:39;56.75;;;18.27;;
65315;SDS011;51920;53.952;10.292;2023-02-23T08:18:05;56.43;;;18.27;;
65315;SDS011;51920;53.952;10.292;2023-02-23T08:20:30;61.13;;;17.83;;
65315;SDS011;51920;53.952;10.292;2023-02-23T08:22:56;64.83;;;19.70;;
65315;SDS011;51920;53.952;10.292;2023-02-23T08:25:22;55.30;;;17.73;;
65315;SDS011;51920;53.952;10.292;2023-02-23T08:27:48;55.53;;;16.55;;
65315;SDS011;51920;53.952;10.292;2023-02-23T08:30:16;59.00;;;17.70;;
65315;SDS011;51920;53.952;10.292;2023-02-23T08:32:44;50.60;;;17.08;;
65315;SDS011;51920;53.952;10.292;2023-02-23T08:35:09;53.97;;;16.65;;
65315;SDS011;51920;53.952;10.292;2023-02-23T08:37:35;53.80;;;16.53;;
65315;SDS011;51920;53.952;10.292;2023-02-23T08:40:00;46.50;;;15.87;;
65315;SDS011;51920;53.952;10.292;2023-02-23T08:42:26;47.83;;;16.83;;
65315;SDS011;51920;53.952;10.292;2023-02-23T08:44:52;50.10;;;16.50;;
65315;SDS011;51920;53.952;10.292;2023-02-23T08:47:17;41.83;;;15.10;;
65315;SDS011;51920;53.952;10.292;2023-02-23T08:49:49;46.37;;;15.97;;
65315;SDS011;51920;53.952;10.292;2023-02-23T08:52:15;47.25;;;15.93;;
65315;SDS011;51920;53.952;10.292;2023-02-23T08:54:40;46.60;;;16.27;;
65315;SDS011;51920;53.952;10.292;2023-02-23T08:57:06;46.00;;;17.07;;
65315;SDS011;51920;53.952;10.292;2023-02-23T08:59:31;42.97;;;15.13;;
65315;SDS011;51920;53.952;10.292;2023-02-23T09:01:57;47.22;;;15.13;;
65315;SDS011;51920;53.952;10.292;2023-02-23T09:04:22;43.63;;;14.60;;
65315;SDS011;51920;53.952;10.292;2023-02-23T09:06:48;43.77;;;14.30;;
65315;SDS011;51920;53.952;10.292;2023-02-23T09:09:14;41.17;;;14.77;;
65315;SDS011;51920;53.952;10.292;2023-02-23T09:11:41;38.33;;;13.35;;
65315;SDS011;51920;53.952;10.292;2023-02-23T09:14:06;34.72;;;12.63;;
65315;SDS011;51920;53.952;10.292;2023-02-23T09:16:32;32.33;;;12.03;;
65315;SDS011;51920;53.952;10.292;2023-02-23T09:19:00;36.17;;;13.02;;
65315;SDS011;51920;53.952;10.292;2023-02-23T09:21:26;35.25;;;13.68;;
65315;SDS011;51920;53.952;10.292;2023-02-23T09:23:54;38.47;;;14.55;;
65315;SDS011;51920;53.952;10.292;2023-02-23T09:26:21;39.63;;;15.90;;
65315;SDS011;51920;53.952;10.292;2023-02-23T09:28:47;41.33;;;14.95;;
65315;SDS011;51920;53.952;10.292;2023-02-23T09:31:16;45.90;;;16.75;;
65315;SDS011;51920;53.952;10.292;2023-02-23T09:33:42;45.65;;;16.98;;
65315;SDS011;51920;53.952;10.292;2023-02-23T09:36:09;53.33;;;17.97;;
65315;SDS011;51920;53.952;10.292;2023-02-23T09:38:42;62.88;;;19.15;;
65315;SDS011;51920;53.952;10.292;2023-02-23T09:43:55;72.77;;;20.37;;
65315;SDS011;51920;53.952;10.292;2023-02-23T09:49:01;85.22;;;22.45;;
65315;SDS011;51920;53.952;10.292;2023-02-23T09:51:28;99.53;;;24.85;;
65315;SDS011;51920;53.952;10.292;2023-02-23T09:53:57;106.07;;;27.23;;
65315;SDS011;51920;53.952;10.292;2023-02-23T09:56:30;99.97;;;25.13;;
65315;SDS011;51920;53.952;10.292;2023-02-23T09:59:00;110.88;;;26.95;;
65315;SDS011;51920;53.952;10.292;2023-02-23T10:04:01;115.53;;;25.80;;
65315;SDS011;51920;53.952;10.292;2023-02-23T10:06:34;110.28;;;26.17;;
65315;SDS011;51920;53.952;10.292;2023-02-23T10:14:51;97.22;;;23.92;;
65315;SDS011;51920;53.952;10.292;2023-02-23T10:22:52;102.07;;;23.75;;
65315;SDS011;51920;53.952;10.292;2023-02-23T10:25:26;93.63;;;23.95;;
65315;SDS011;51920;53.952;10.292;2023-02-23T10:27:54;100.78;;;25.02;;
65315;SDS011;51920;53.952;10.292;2023-02-23T10:30:29;93.80;;;23.02;;
65315;SDS011;51920;53.952;10.292;2023-02-23T10:35:27;103.68;;;25.17;;
65315;SDS011;51920;53.952;10.292;2023-02-23T10:37:54;101.15;;;26.25;;
65315;SDS011;51920;53.952;10.292;2023-02-23T10:40:22;107.25;;;25.48;;
65315;SDS011;51920;53.952;10.292;2023-02-23T10:42:50;103.43;;;24.98;;
65315;SDS011;51920;53.952;10.292;2023-02-23T10:45:18;99.50;;;24.33;;
65315;SDS011;51920;53.952;10.292;2023-02-23T10:47:49;101.50;;;24.65;;
65315;SDS011;51920;53.952;10.292;2023-02-23T10:50:17;100.28;;;23.80;;
65315;SDS011;51920;53.952;10.292;2023-02-23T10:52:47;104.13;;;25.13;;
65315;SDS011;51920;53.952;10.292;2023-02-23T10:55:20;105.70;;;25.35;;
65315;SDS011;51920;53.952;10.292;2023-02-23T10:57:49;108.73;;;25.97;;
65315;SDS011;51920;53.952;10.292;2023-02-23T11:00:25;100.65;;;24.90;;
65315;SDS011;51920;53.952;10.292;2023-02-23T11:02:55;105.28;;;25.52;;
65315;SDS011;51920;53.952;10.292;2023-02-23T11:10:36;101.30;;;24.53;;
65315;SDS011;51920;53.952;10.292;2023-02-23T11:13:02;105.90;;;24.23;;
65315;SDS011;51920;53.952;10.292;2023-02-23T11:15:28;109.77;;;25.47;;
65315;SDS011;51920;53.952;10.292;2023-02-23T11:18:03;104.35;;;24.63;;
65315;SDS011;51920;53.952;10.292;2023-02-23T11:20:33;106.82;;;26.40;;
65315;SDS011;51920;53.952;10.292;2023-02-23T11:23:09;112.90;;;26.70;;
65315;SDS011;51920;53.952;10.292;2023-02-23T11:25:36;102.50;;;24.83;;
65315;SDS011;51920;53.952;10.292;2023-02-23T11:28:13;123.00;;;27.35;;
65315;SDS011;51920;53.952;10.292;2023-02-23T11:30:45;105.30;;;26.38;;
65315;SDS011;51920;53.952;10.292;2023-02-23T11:33:15;109.85;;;25.25;;
65315;SDS011;51920;53.952;10.292;2023-02-23T11:35:44;104.57;;;25.27;;
65315;SDS011;51920;53.952;10.292;2023-02-23T11:38:14;95.30;;;24.10;;
65315;SDS011;51920;53.952;10.292;2023-02-23T11:40:59;94.65;;;24.45;;
65315;SDS011;51920;53.952;10.292;2023-02-23T11:43:28;93.78;;;24.35;;
65315;SDS011;51920;53.952;10.292;2023-02-23T11:45:54;100.03;;;23.97;;
65315;SDS011;51920;53.952;10.292;2023-02-23T11:48:26;90.18;;;23.88;;
65315;SDS011;51920;53.952;10.292;2023-02-23T11:50:55;89.53;;;23.42;;
65315;SDS011;51920;53.952;10.292;2023-02-23T11:56:00;84.03;;;22.33;;
65315;SDS011;51920;53.952;10.292;2023-02-23T12:01:09;78.15;;;21.33;;
65315;SDS011;51920;53.952;10.292;2023-02-23T12:03:39;93.68;;;23.80;;
65315;SDS011;51920;53.952;10.292;2023-02-23T12:06:11;79.60;;;20.60;;
65315;SDS011;51920;53.952;10.292;2023-02-23T12:08:54;85.43;;;22.15;;
65315;SDS011;51920;53.952;10.292;2023-02-23T12:11:26;83.63;;;21.37;;
65315;SDS011;51920;53.952;10.292;2023-02-23T12:13:58;81.57;;;19.98;;
65315;SDS011;51920;53.952;10.292;2023-02-23T12:16:37;80.43;;;21.08;;
65315;SDS011;51920;53.952;10.292;2023-02-23T12:21:48;74.63;;;19.30;;
65315;SDS011;51920;53.952;10.292;2023-02-23T12:27:25;76.45;;;19.40;;
65315;SDS011;51920;53.952;10.292;2023-02-23T12:30:22;73.38;;;19.75;;
65315;SDS011;51920;53.952;10.292;2023-02-23T12:32:54;74.80;;;19.38;;
65315;SDS011;51920;53.952;10.292;2023-02-23T12:35:26;70.20;;;19.38;;
65315;SDS011;51920;53.952;10.292;2023-02-23T12:37:59;73.73;;;19.17;;
65315;SDS011;51920;53.952;10.292;2023-02-23T12:40:35;75.35;;;19.65;;
65315;SDS011;51920;53.952;10.292;2023-02-23T12:43:20;74.07;;;18.25;;
65315;SDS011;51920;53.952;10.292;2023-02-23T12:46:01;70.30;;;17.92;;
65315;SDS011;51920;53.952;10.292;2023-02-23T12:48:40;68.18;;;18.17;;
65315;SDS011;51920;53.952;10.292;2023-02-23T12:51:27;62.70;;;18.60;;
65315;SDS011;51920;53.952;10.292;2023-02-23T12:54:15;63.65;;;18.77;;
65315;SDS011;51920;53.952;10.292;2023-02-23T13:11:15;68.00;;;18.05;;
65315;SDS011;51920;53.952;10.292;2023-02-23T13:17:03;54.40;;;15.88;;
65315;SDS011;51920;53.952;10.292;2023-02-23T13:19:40;58.13;;;17.43;;
65315;SDS011;51920;53.952;10.292;2023-02-23T13:22:23;47.60;;;14.82;;
65315;SDS011;51920;53.952;10.292;2023-02-23T13:24:56;50.05;;;14.00;;
65315;SDS011;51920;53.952;10.292;2023-02-23T13:29:58;48.90;;;14.52;;
65315;SDS011;51920;53.952;10.292;2023-02-23T13:32:25;50.87;;;14.87;;
65315;SDS011;51920;53.952;10.292;2023-02-23T13:38:13;54.03;;;15.45;;
65315;SDS011;51920;53.952;10.292;2023-02-23T13:51:00;41.53;;;12.55;;
65315;SDS011;51920;53.952;10.292;2023-02-23T13:53:43;40.20;;;12.82;;
65315;SDS011;51920;53.952;10.292;2023-02-23T13:56:21;42.03;;;13.33;;
65315;SDS011;51920;53.952;10.292;2023-02-23T14:01:35;42.53;;;12.80;;
65315;SDS011;51920;53.952;10.292;2023-02-23T14:04:03;44.70;;;12.80;;
65315;SDS011;51920;53.952;10.292;2023-02-23T14:06:36;45.88;;;13.13;;
65315;SDS011;51920;53.952;10.292;2023-02-23T14:09:14;42.17;;;12.27;;
65315;SDS011;51920;53.952;10.292;2023-02-23T14:11:49;40.33;;;11.57;;
65315;SDS011;51920;53.952;10.292;2023-02-23T14:22:35;32.93;;;10.70;;
65315;SDS011;51920;53.952;10.292;2023-02-23T14:28:00;36.40;;;11.00;;
65315;SDS011;51920;53.952;10.292;2023-02-23T14:30:43;34.53;;;11.55;;
65315;SDS011;51920;53.952;10.292;2023-02-23T14:38:45;32.28;;;10.88;;
65315;SDS011;51920;53.952;10.292;2023-02-23T14:41:10;32.63;;;11.20;;
65315;SDS011;51920;53.952;10.292;2023-02-23T14:46:12;32.92;;;10.95;;
65315;SDS011;51920;53.952;10.292;2023-02-23T14:48:43;32.53;;;9.82;;
65315;SDS011;51920;53.952;10.292;2023-02-23T14:51:21;32.87;;;10.20;;
65315;SDS011;51920;53.952;10.292;2023-02-23T14:53:52;29.02;;;9.40;;
65315;SDS011;51920;53.952;10.292;2023-02-23T14:56:20;32.50;;;9.95;;
65315;SDS011;51920;53.952;10.292;2023-02-23T14:58:53;30.20;;;10.98;;
65315;SDS011;51920;53.952;10.292;2023-02-23T15:01:33;30.35;;;10.38;;
65315;SDS011;51920;53.952;10.292;2023-02-23T15:04:11;28.63;;;9.90;;
65315;SDS011;51920;53.952;10.292;2023-02-23T15:06:59;33.13;;;10.27;;
65315;SDS011;51920;53.952;10.292;2023-02-23T15:09:34;28.38;;;10.15;;
65315;SDS011;51920;53.952;10.292;2023-02-23T15:12:22;32.58;;;10.60;;
65315;SDS011;51920;53.952;10.292;2023-02-23T15:14:56;29.63;;;9.40;;
65315;SDS011;51920;53.952;10.292;2023-02-23T15:17:25;30.40;;;10.13;;
65315;SDS011;51920;53.952;10.292;2023-02-23T15:19:55;24.92;;;8.90;;
65315;SDS011;51920;53.952;10.292;2023-02-23T15:22:28;27.15;;;9.65;;
65315;SDS011;51920;53.952;10.292;2023-02-23T15:25:01;28.45;;;9.00;;
65315;SDS011;51920;53.952;10.292;2023-02-23T15:27:37;25.75;;;8.57;;
65315;SDS011;51920;53.952;10.292;2023-02-23T15:33:02;29.05;;;9.00;;
65315;SDS011;51920;53.952;10.292;2023-02-23T15:35:38;25.83;;;9.30;;
65315;SDS011;51920;53.952;10.292;2023-02-23T15:38:19;29.83;;;10.02;;
65315;SDS011;51920;53.952;10.292;2023-02-23T15:44:25;27.70;;;8.53;;
65315;SDS011;51920;53.952;10.292;2023-02-23T15:46:58;29.48;;;8.30;;
65315;SDS011;51920;53.952;10.292;2023-02-23T15:49:32;32.17;;;8.90;;
65315;SDS011;51920;53.952;10.292;2023-02-23T15:52:02;28.15;;;8.60;;
65315;SDS011;51920;53.952;10.292;2023-02-23T15:54:43;23.92;;;7.80;;
65315;SDS011;51920;53.952;10.292;2023-02-23T15:57:17;21.80;;;7.17;;
65315;SDS011;51920;53.952;10.292;2023-02-23T15:59:52;22.40;;;7.07;;
65315;SDS011;51920;53.952;10.292;2023-02-23T16:02:23;19.25;;;6.28;;
65315;SDS011;51920;53.952;10.292;2023-02-23T16:04:49;22.63;;;6.55;;
65315;SDS011;51920;53.952;10.292;2023-02-23T16:09:48;19.27;;;6.50;;
65315;SDS011;51920;53.952;10.292;2023-02-23T16:12:16;20.38;;;5.97;;
65315;SDS011;51920;53.952;10.292;2023-02-23T16:14:48;18.67;;;6.60;;
65315;SDS011;51920;53.952;10.292;2023-02-23T16:19:55;19.80;;;6.43;;
65315;SDS011;51920;53.952;10.292;2023-02-23T16:22:35;20.00;;;5.57;;
65315;SDS011;51920;53.952;10.292;2023-02-23T16:25:05;22.15;;;5.80;;
65315;SDS011;51920;53.952;10.292;2023-02-23T16:27:35;20.75;;;5.60;;
65315;SDS011;51920;53.952;10.292;2023-02-23T16:30:19;17.85;;;4.53;;
65315;SDS011;51920;53.952;10.292;2023-02-23T16:32:48;18.75;;;5.00;;
65315;SDS011;51920;53.952;10.292;2023-02-23T16:35:32;12.90;;;4.00;;
65315;SDS011;51920;53.952;10.292;2023-02-23T16:38:00;17.35;;;3.90;;
65315;SDS011;51920;53.952;10.292;2023-02-23T16:40:27;18.50;;;4.32;;
65315;SDS011;51920;53.952;10.292;2023-02-23T16:42:53;16.70;;;4.73;;
65315;SDS011;51920;53.952;10.292;2023-02-23T16:45:23;18.95;;;4.78;;
65315;SDS011;51920;53.952;10.292;2023-02-23T16:47:50;16.88;;;4.60;;
65315;SDS011;51920;53.952;10.292;2023-02-23T16:50:18;17.20;;;3.40;;
65315;SDS011;51920;53.952;10.292;2023-02-23T16:52:45;17.42;;;4.05;;
65315;SDS011;51920;53.952;10.292;2023-02-23T16:55:16;13.10;;;3.40;;